createdAt,value
2018-10-02T00:00:00.502Z,7.81
2018-10-02T00:01:00.465Z,7.77
2018-10-02T00:02:00.467Z,7.76
2018-10-02T00:03:00.455Z,7.81
2018-10-02T00:04:00.438Z,7.79
2018-10-02T00:05:00.509Z,7.82
2018-10-02T00:06:00.447Z,7.76
2018-10-02T00:07:00.404Z,7.82
2018-10-02T00:08:00.466Z,7.77
2018-10-02T00:09:00.381Z,7.79
2018-10-02T00:10:00.374Z,7.85
2018-10-02T00:11:00.398Z,7.79
2018-10-02T00:12:00.397Z,7.85
2018-10-02T00:13:00.357Z,7.88
2018-10-02T00:14:00.333Z,7.89
2018-10-02T00:15:00.317Z,7.91
2018-10-02T00:16:00.331Z,7.89
2018-10-02T00:17:00.414Z,7.96
2018-10-02T00:18:00.287Z,7.91
2018-10-02T00:19:00.289Z,7.92
2018-10-02T00:20:00.305Z,7.96
2018-10-02T00:21:00.250Z,7.96
2018-10-02T00:22:00.299Z,7.92
2018-10-02T00:23:00.223Z,8.02
2018-10-02T00:24:00.215Z,8.04
2018-10-02T00:25:00.209Z,8.10
2018-10-02T00:26:00.204Z,8.07
2018-10-02T00:27:00.228Z,8.02
2018-10-02T00:28:00.222Z,8.07
2018-10-02T00:29:00.247Z,8.03
2018-10-02T00:30:00.152Z,8.06
2018-10-02T00:31:00.150Z,8.02
2018-10-02T00:32:00.303Z,8.10
2018-10-02T00:33:00.167Z,8.04
2018-10-02T00:34:00.146Z,8.00
2018-10-02T00:35:00.099Z,8.03
2018-10-02T00:36:00.204Z,8.02
2018-10-02T00:37:00.299Z,8.02
2018-10-02T00:38:00.064Z,8.03
2018-10-02T00:39:00.057Z,8.04
2018-10-02T00:40:00.232Z,8.04
2018-10-02T00:41:00.027Z,7.99
2018-10-02T00:42:00.202Z,8.02
2018-10-02T00:43:00.020Z,8.03
2018-10-02T00:43:59.998Z,8.06
2018-10-02T00:45:00.045Z,8.06
2018-10-02T00:46:00.260Z,8.13
2018-10-02T00:47:00.038Z,8.06
2018-10-02T00:47:59.959Z,8.13
2018-10-02T00:48:59.955Z,8.24
2018-10-02T00:49:59.936Z,8.17
2018-10-02T00:50:59.989Z,8.21
2018-10-02T00:52:00.001Z,8.10
2018-10-02T00:52:59.899Z,8.20
2018-10-02T00:53:59.902Z,8.18
2018-10-02T00:54:59.944Z,8.13
2018-10-02T00:55:59.905Z,8.18
2018-10-02T00:56:59.889Z,8.12
2018-10-02T00:57:59.844Z,8.04
2018-10-02T00:58:59.883Z,8.18
2018-10-02T00:59:59.835Z,8.14
2018-10-02T01:00:59.841Z,8.14
2018-10-02T01:01:59.869Z,8.10
2018-10-02T01:02:59.887Z,8.03
2018-10-02T01:03:59.820Z,8.12
2018-10-02T01:04:59.776Z,8.13
2018-10-02T01:05:59.851Z,8.12
2018-10-02T01:06:59.765Z,8.17
2018-10-02T01:07:59.777Z,8.17
2018-10-02T01:08:59.787Z,8.20
2018-10-02T01:09:59.720Z,8.14
2018-10-02T01:10:59.711Z,8.12
2018-10-02T01:11:59.780Z,8.04
2018-10-02T01:12:59.761Z,8.13
2018-10-02T01:13:59.704Z,8.10
2018-10-02T01:14:59.672Z,8.10
2018-10-02T01:15:59.713Z,8.04
2018-10-02T01:16:59.666Z,8.04
2018-10-02T01:17:59.654Z,8.00
2018-10-02T01:18:59.668Z,8.03
2018-10-02T01:19:59.619Z,8.03
2018-10-02T01:20:59.656Z,8.06
2018-10-02T01:21:59.686Z,8.07
2018-10-02T01:22:59.573Z,8.00
2018-10-02T01:23:59.565Z,8.07
2018-10-02T01:25:00.486Z,8.00
2018-10-02T01:25:59.609Z,8.02
2018-10-02T01:26:59.528Z,8.00
2018-10-02T01:27:59.540Z,8.03
2018-10-02T01:28:59.512Z,8.02
2018-10-02T01:29:59.502Z,8.03
2018-10-02T01:30:59.533Z,8.02
2018-10-02T01:31:59.646Z,8.02
2018-10-02T01:32:59.463Z,7.95
2018-10-02T01:33:59.455Z,8.02
2018-10-02T01:34:59.445Z,8.04
2018-10-02T01:35:59.570Z,8.00
2018-10-02T01:36:59.559Z,8.04
2018-10-02T01:37:59.424Z,8.03
2018-10-02T01:38:59.476Z,7.92
2018-10-02T01:39:59.391Z,8.03
2018-10-02T01:40:59.414Z,7.95
2018-10-02T01:41:59.413Z,7.92
2018-10-02T01:42:59.407Z,7.89
2018-10-02T01:43:59.436Z,7.92
2018-10-02T01:44:59.341Z,7.89
2018-10-02T01:45:59.334Z,7.89
2018-10-02T01:46:59.313Z,7.96
2018-10-02T01:47:59.377Z,7.86
2018-10-02T01:48:59.351Z,7.91
2018-10-02T01:49:59.281Z,7.86
2018-10-02T01:50:59.291Z,7.86
2018-10-02T01:51:59.262Z,7.84
2018-10-02T01:52:59.245Z,7.92
2018-10-02T01:53:59.275Z,7.86
2018-10-02T01:54:59.233Z,7.85
2018-10-02T01:55:59.215Z,7.82
2018-10-02T01:56:59.201Z,7.77
2018-10-02T01:57:59.199Z,7.77
2018-10-02T01:58:59.214Z,7.77
2018-10-02T01:59:59.179Z,7.79
2018-10-02T02:00:59.235Z,7.79
2018-10-02T02:01:59.151Z,7.70
2018-10-02T02:02:59.153Z,7.69
2018-10-02T02:03:59.258Z,7.76
2018-10-02T02:04:59.168Z,7.73
2018-10-02T02:05:59.103Z,7.73
2018-10-02T02:06:59.121Z,7.81
2018-10-02T02:07:59.203Z,7.71
2018-10-02T02:08:59.142Z,7.73
2018-10-02T02:09:59.083Z,7.74
2018-10-02T02:10:59.074Z,7.76
2018-10-02T02:11:59.039Z,7.73
2018-10-02T02:12:59.095Z,7.71
2018-10-02T02:13:59.072Z,7.74
2018-10-02T02:14:59.003Z,7.69
2018-10-02T02:15:59.048Z,7.69
2018-10-02T02:16:59.024Z,7.62
2018-10-02T02:17:59.116Z,7.69
2018-10-02T02:18:59.008Z,7.58
2018-10-02T02:19:58.957Z,7.51
2018-10-02T02:20:58.965Z,7.48
2018-10-02T02:21:58.998Z,7.48
2018-10-02T02:22:58.916Z,7.42
2018-10-02T02:23:58.917Z,7.37
2018-10-02T02:24:58.927Z,7.37
2018-10-02T02:25:58.943Z,7.37
2018-10-02T02:26:58.966Z,7.34
2018-10-02T02:27:58.890Z,7.37
2018-10-02T02:28:58.952Z,7.26
2018-10-02T02:29:58.870Z,7.24
2018-10-02T02:30:58.886Z,7.29
2018-10-02T02:31:58.897Z,7.36
2018-10-02T02:32:58.841Z,7.26
2018-10-02T02:33:58.817Z,7.37
2018-10-02T02:34:58.809Z,7.29
2018-10-02T02:35:58.815Z,7.33
2018-10-02T02:36:58.768Z,7.15
2018-10-02T02:37:58.861Z,7.27
2018-10-02T02:38:58.857Z,7.26
2018-10-02T02:39:58.732Z,7.29
2018-10-02T02:40:58.744Z,7.21
2018-10-02T02:41:58.771Z,7.23
2018-10-02T02:42:58.735Z,7.33
2018-10-02T02:43:58.691Z,7.27
2018-10-02T02:44:58.684Z,7.34
2018-10-02T02:45:58.793Z,7.26
2018-10-02T02:46:58.656Z,7.32
2018-10-02T02:47:58.643Z,7.47
2018-10-02T02:48:58.720Z,7.45
2018-10-02T02:49:58.719Z,7.48
2018-10-02T02:50:58.648Z,7.48
2018-10-02T02:51:58.616Z,7.51
2018-10-02T02:52:58.587Z,7.57
2018-10-02T02:53:58.649Z,7.66
2018-10-02T02:54:58.590Z,7.66
2018-10-02T02:55:58.555Z,7.52
2018-10-02T02:56:58.544Z,7.66
2018-10-02T02:57:58.596Z,7.67
2018-10-02T02:58:58.535Z,7.67
2018-10-02T02:59:58.616Z,7.71
2018-10-02T03:00:58.504Z,7.79
2018-10-02T03:01:58.496Z,7.70
2018-10-02T03:02:58.575Z,7.74
2018-10-02T03:03:58.470Z,7.73
2018-10-02T03:04:58.454Z,7.73
2018-10-02T03:05:58.480Z,7.69
2018-10-02T03:06:58.556Z,7.77
2018-10-02T03:07:58.425Z,7.79
2018-10-02T03:08:58.521Z,7.79
2018-10-02T03:09:58.413Z,7.77
2018-10-02T03:10:58.444Z,7.82
2018-10-02T03:11:58.411Z,7.81
2018-10-02T03:12:58.382Z,7.81
2018-10-02T03:13:58.356Z,7.76
2018-10-02T03:14:58.393Z,7.77
2018-10-02T03:15:58.338Z,7.82
2018-10-02T03:16:58.350Z,7.81
2018-10-02T03:17:58.338Z,7.69
2018-10-02T03:18:58.300Z,7.85
2018-10-02T03:19:58.332Z,7.73
2018-10-02T03:20:58.317Z,7.73
2018-10-02T03:21:58.350Z,7.73
2018-10-02T03:22:58.532Z,7.71
2018-10-02T03:23:58.245Z,7.73
2018-10-02T03:24:58.277Z,7.71
2018-10-02T03:25:58.223Z,7.69
2018-10-02T03:26:58.288Z,7.73
2018-10-02T03:27:58.219Z,7.71
2018-10-02T03:28:58.206Z,7.69
2018-10-02T03:29:58.214Z,7.82
2018-10-02T03:30:58.167Z,7.76
2018-10-02T03:31:58.170Z,7.77
2018-10-02T03:32:58.233Z,7.76
2018-10-02T03:33:58.258Z,7.77
2018-10-02T03:34:58.142Z,7.81
2018-10-02T03:35:58.126Z,7.81
2018-10-02T03:36:58.109Z,7.79
2018-10-02T03:37:58.175Z,7.82
2018-10-02T03:38:58.161Z,7.82
2018-10-02T03:39:58.109Z,7.79
2018-10-02T03:40:58.231Z,7.84
2018-10-02T03:41:58.062Z,7.86
2018-10-02T03:42:58.050Z,7.91
2018-10-02T03:43:58.023Z,7.92
2018-10-02T03:44:58.114Z,7.94
2018-10-02T03:45:58.004Z,7.96
2018-10-02T03:46:57.991Z,8.06
2018-10-02T03:47:58.052Z,8.02
2018-10-02T03:48:58.071Z,8.03
2018-10-02T03:49:58.014Z,8.04
2018-10-02T03:50:57.947Z,8.02
2018-10-02T03:51:57.945Z,8.09
2018-10-02T03:52:57.995Z,8.03
2018-10-02T03:53:57.931Z,8.06
2018-10-02T03:54:57.920Z,8.04
2018-10-02T03:55:57.957Z,8.02
2018-10-02T03:56:57.923Z,7.96
2018-10-02T03:57:57.874Z,7.99
2018-10-02T03:58:57.928Z,7.96
2018-10-02T03:59:57.851Z,8.03
2018-10-02T04:00:57.841Z,7.99
2018-10-02T04:01:57.921Z,8.00
2018-10-02T04:02:57.824Z,8.03
2018-10-02T04:03:57.854Z,7.95
2018-10-02T04:04:57.815Z,7.92
2018-10-02T04:05:57.865Z,8.02
2018-10-02T04:06:57.822Z,8.03
2018-10-02T04:07:57.769Z,7.94
2018-10-02T04:08:57.771Z,7.94
2018-10-02T04:09:57.844Z,7.96
2018-10-02T04:10:57.757Z,7.96
2018-10-02T04:11:57.719Z,7.99
2018-10-02T04:12:57.799Z,7.94
2018-10-02T04:13:57.714Z,8.00
2018-10-02T04:14:57.773Z,7.91
2018-10-02T04:15:57.715Z,7.95
2018-10-02T04:16:57.729Z,7.95
2018-10-02T04:17:57.659Z,8.03
2018-10-02T04:18:57.668Z,7.96
2018-10-02T04:19:57.741Z,7.96
2018-10-02T04:20:57.633Z,7.99
2018-10-02T04:21:57.641Z,8.03
2018-10-02T04:22:57.605Z,7.99
2018-10-02T04:23:57.634Z,8.04
2018-10-02T04:24:57.626Z,8.03
2018-10-02T04:25:57.575Z,7.95
2018-10-02T04:26:57.574Z,8.00
2018-10-02T04:27:57.626Z,8.00
2018-10-02T04:28:57.578Z,7.99
2018-10-02T04:29:57.553Z,7.99
2018-10-02T04:30:57.535Z,8.02
2018-10-02T04:31:57.507Z,7.96
2018-10-02T04:32:57.492Z,8.04
2018-10-02T04:33:57.548Z,7.99
2018-10-02T04:34:57.510Z,7.99
2018-10-02T04:35:57.490Z,8.00
2018-10-02T04:36:57.451Z,8.03
2018-10-02T04:37:57.463Z,8.06
2018-10-02T04:38:57.436Z,8.02
2018-10-02T04:39:57.419Z,7.99
2018-10-02T04:40:57.437Z,8.06
2018-10-02T04:41:57.397Z,8.06
2018-10-02T04:42:57.400Z,8.07
2018-10-02T04:43:57.390Z,8.20
2018-10-02T04:44:57.370Z,8.13
2018-10-02T04:45:57.399Z,8.10
2018-10-02T04:46:57.347Z,8.21
2018-10-02T04:47:57.333Z,8.17
2018-10-02T04:48:57.426Z,8.09
2018-10-02T04:49:57.349Z,8.17
2018-10-02T04:50:57.338Z,8.20
2018-10-02T04:51:57.435Z,8.17
2018-10-02T04:52:57.455Z,8.14
2018-10-02T04:53:57.275Z,8.17
2018-10-02T04:54:57.305Z,8.28
2018-10-02T04:55:57.424Z,8.24
2018-10-02T04:56:57.266Z,8.25
2018-10-02T04:57:57.226Z,8.22
2018-10-02T04:58:57.228Z,8.24
2018-10-02T04:59:57.213Z,8.18
2018-10-02T05:00:57.194Z,8.25
2018-10-02T05:01:57.223Z,8.20
2018-10-02T05:02:57.170Z,8.27
2018-10-02T05:03:57.349Z,8.21
2018-10-02T05:04:57.154Z,8.28
2018-10-02T05:05:57.181Z,8.29
2018-10-02T05:06:57.153Z,8.22
2018-10-02T05:07:57.125Z,8.29
2018-10-02T05:08:57.127Z,8.25
2018-10-02T05:09:57.098Z,8.28
2018-10-02T05:10:57.200Z,8.36
2018-10-02T05:11:57.114Z,8.27
2018-10-02T05:12:57.067Z,8.29
2018-10-02T05:13:57.083Z,8.31
2018-10-02T05:14:57.097Z,8.34
2018-10-02T05:15:57.071Z,8.32
2018-10-02T05:16:57.021Z,8.32
2018-10-02T05:17:57.036Z,8.36
2018-10-02T05:18:57.065Z,8.34
2018-10-02T05:19:56.990Z,8.42
2018-10-02T05:20:56.983Z,8.34
2018-10-02T05:21:57.039Z,8.34
2018-10-02T05:22:56.992Z,8.40
2018-10-02T05:23:56.990Z,8.37
2018-10-02T05:24:56.961Z,8.37
2018-10-02T05:25:56.924Z,8.39
2018-10-02T05:26:56.959Z,8.43
2018-10-02T05:27:56.936Z,8.43
2018-10-02T05:28:56.899Z,8.39
2018-10-02T05:29:56.910Z,8.42
2018-10-02T05:30:56.896Z,8.42
2018-10-02T05:31:56.928Z,8.43
2018-10-02T05:32:56.929Z,8.43
2018-10-02T05:33:56.866Z,8.42
2018-10-02T05:34:56.917Z,8.45
2018-10-02T05:35:56.815Z,8.43
2018-10-02T05:36:56.807Z,8.45
2018-10-02T05:37:56.799Z,8.43
2018-10-02T05:38:56.829Z,8.43
2018-10-02T05:39:56.774Z,8.49
2018-10-02T05:40:56.785Z,8.55
2018-10-02T05:41:56.827Z,8.55
2018-10-02T05:42:56.750Z,8.57
2018-10-02T05:43:56.757Z,8.57
2018-10-02T05:44:56.722Z,8.60
2018-10-02T05:45:56.721Z,8.60
2018-10-02T05:46:56.713Z,8.60
2018-10-02T05:47:56.732Z,8.60
2018-10-02T05:48:56.711Z,8.57
2018-10-02T05:49:56.666Z,8.58
2018-10-02T05:50:56.734Z,8.65
2018-10-02T05:51:56.661Z,8.57
2018-10-02T05:52:56.672Z,8.61
2018-10-02T05:53:56.622Z,8.64
2018-10-02T05:54:56.654Z,8.60
2018-10-02T05:55:56.690Z,8.61
2018-10-02T05:56:56.597Z,8.61
2018-10-02T05:57:56.596Z,8.68
2018-10-02T05:58:56.575Z,8.63
2018-10-02T05:59:56.590Z,8.61
2018-10-02T06:00:56.635Z,8.70
2018-10-02T06:01:56.548Z,8.63
2018-10-02T06:02:56.526Z,8.65
2018-10-02T06:03:56.552Z,8.63
2018-10-02T06:04:56.505Z,8.70
2018-10-02T06:05:56.551Z,8.73
2018-10-02T06:06:56.485Z,8.64
2018-10-02T06:07:56.484Z,8.76
2018-10-02T06:08:56.462Z,8.73
2018-10-02T06:09:56.557Z,8.75
2018-10-02T06:10:56.469Z,8.71
2018-10-02T06:11:56.437Z,8.71
2018-10-02T06:12:56.451Z,8.76
2018-10-02T06:13:56.407Z,8.71
2018-10-02T06:14:56.443Z,8.79
2018-10-02T06:15:56.424Z,8.85
2018-10-02T06:16:56.432Z,8.83
2018-10-02T06:17:56.460Z,8.78
2018-10-02T06:18:56.356Z,8.91
2018-10-02T06:19:56.341Z,8.91
2018-10-02T06:20:56.334Z,8.94
2018-10-02T06:21:56.355Z,8.91
2018-10-02T06:22:56.310Z,8.89
2018-10-02T06:23:56.298Z,9.00
2018-10-02T06:24:56.298Z,8.91
2018-10-02T06:25:56.329Z,9.00
2018-10-02T06:26:56.298Z,8.88
2018-10-02T06:27:56.280Z,8.93
2018-10-02T06:28:56.250Z,8.93
2018-10-02T06:29:56.247Z,8.97
2018-10-02T06:30:56.230Z,8.97
2018-10-02T06:31:56.284Z,8.91
2018-10-02T06:32:56.201Z,8.94
2018-10-02T06:33:56.195Z,8.93
2018-10-02T06:34:56.189Z,8.98
2018-10-02T06:35:56.176Z,8.97
2018-10-02T06:36:56.309Z,9.00
2018-10-02T06:37:56.184Z,8.98
2018-10-02T06:38:56.399Z,9.00
2018-10-02T06:39:56.129Z,9.01
2018-10-02T06:40:56.117Z,9.01
2018-10-02T06:41:56.134Z,9.15
2018-10-02T06:42:56.138Z,9.13
2018-10-02T06:43:56.111Z,9.12
2018-10-02T06:44:56.109Z,9.15
2018-10-02T06:45:56.060Z,9.15
2018-10-02T06:46:56.052Z,9.16
2018-10-02T06:47:56.079Z,9.12
2018-10-02T06:48:56.074Z,9.15
2018-10-02T06:49:56.018Z,9.15
2018-10-02T06:50:56.086Z,9.22
2018-10-02T06:51:56.101Z,9.19
2018-10-02T06:52:56.068Z,9.16
2018-10-02T06:53:56.034Z,9.15
2018-10-02T06:54:55.961Z,9.16
2018-10-02T06:55:55.998Z,9.17
2018-10-02T06:56:55.970Z,9.15
2018-10-02T06:57:55.934Z,9.16
2018-10-02T06:58:55.944Z,9.16
2018-10-02T06:59:55.909Z,9.19
2018-10-02T07:00:55.986Z,9.19
2018-10-02T07:01:55.889Z,9.22
2018-10-02T07:02:55.943Z,9.30
2018-10-02T07:03:55.912Z,9.30
2018-10-02T07:04:55.857Z,9.26
2018-10-02T07:05:55.845Z,9.24
2018-10-02T07:06:55.836Z,9.30
2018-10-02T07:07:55.821Z,9.20
2018-10-02T07:08:55.967Z,9.17
2018-10-02T07:09:55.805Z,9.16
2018-10-02T07:10:55.787Z,9.19
2018-10-02T07:11:55.779Z,9.17
2018-10-02T07:12:55.767Z,9.04
2018-10-02T07:13:55.805Z,9.06
2018-10-02T07:14:55.874Z,9.04
2018-10-02T07:15:55.770Z,9.01
2018-10-02T07:16:55.729Z,9.00
2018-10-02T07:17:55.753Z,8.94
2018-10-02T07:18:55.719Z,9.00
2018-10-02T07:19:55.755Z,8.93
2018-10-02T07:20:55.788Z,8.91
2018-10-02T07:21:55.677Z,8.86
2018-10-02T07:22:55.662Z,8.89
2018-10-02T07:23:55.686Z,8.80
2018-10-02T07:24:55.641Z,8.78
2018-10-02T07:25:55.646Z,8.73
2018-10-02T07:26:55.849Z,8.83
2018-10-02T07:27:55.706Z,8.65
2018-10-02T07:28:55.609Z,8.73
2018-10-02T07:29:55.582Z,8.73
2018-10-02T07:30:55.783Z,8.78
2018-10-02T07:31:55.590Z,8.71
2018-10-02T07:32:55.637Z,8.68
2018-10-02T07:33:55.638Z,8.70
2018-10-02T07:34:55.552Z,8.76
2018-10-02T07:35:55.545Z,8.76
2018-10-02T07:36:55.540Z,8.93
2018-10-02T07:37:55.505Z,8.89
2018-10-02T07:38:55.572Z,8.91
2018-10-02T07:39:55.492Z,8.89
2018-10-02T07:40:55.589Z,8.97
2018-10-02T07:41:55.473Z,8.91
2018-10-02T07:42:55.444Z,8.97
2018-10-02T07:43:55.603Z,9.00
2018-10-02T07:44:55.561Z,9.08
2018-10-02T07:45:55.475Z,9.08
2018-10-02T07:46:55.508Z,9.10
2018-10-02T07:47:55.428Z,9.15
2018-10-02T07:48:55.378Z,9.08
2018-10-02T07:49:55.442Z,9.06
2018-10-02T07:50:55.509Z,9.08
2018-10-02T07:51:55.352Z,8.97
2018-10-02T07:52:55.348Z,8.86
2018-10-02T07:53:55.399Z,8.94
2018-10-02T07:54:55.406Z,8.86
2018-10-02T07:55:55.357Z,8.79
2018-10-02T07:56:55.344Z,8.91
2018-10-02T07:57:55.282Z,8.82
2018-10-02T07:58:55.273Z,8.71
2018-10-02T07:59:55.311Z,8.67
2018-10-02T08:00:55.368Z,8.73
2018-10-02T08:01:55.347Z,8.71
2018-10-02T08:02:55.257Z,8.68
2018-10-02T08:03:55.222Z,8.79
2018-10-02T08:04:55.448Z,8.71
2018-10-02T08:05:55.289Z,8.79
2018-10-02T08:06:55.185Z,8.78
2018-10-02T08:07:55.173Z,8.78
2018-10-02T08:08:55.254Z,8.79
2018-10-02T08:09:55.151Z,8.91
2018-10-02T08:10:55.146Z,8.96
2018-10-02T08:11:55.285Z,8.98
2018-10-02T08:12:55.168Z,8.97
2018-10-02T08:13:55.128Z,9.01
2018-10-02T08:14:55.283Z,8.97
2018-10-02T08:15:55.095Z,9.10
2018-10-02T08:16:55.111Z,9.17
2018-10-02T08:17:55.123Z,9.10
2018-10-02T08:18:55.056Z,9.16
2018-10-02T08:19:55.085Z,9.17
2018-10-02T08:20:55.096Z,9.20
2018-10-02T08:21:55.048Z,9.15
2018-10-02T08:22:55.061Z,9.12
2018-10-02T08:23:55.003Z,9.12
2018-10-02T08:24:54.991Z,9.17
2018-10-02T08:25:55.007Z,9.15
2018-10-02T08:26:55.001Z,9.20
2018-10-02T08:27:54.985Z,9.26
2018-10-02T08:28:55.001Z,9.12
2018-10-02T08:29:55.063Z,9.20
2018-10-02T08:30:54.931Z,9.22
2018-10-02T08:31:55.151Z,9.19
2018-10-02T08:32:54.975Z,9.20
2018-10-02T08:33:54.901Z,9.20
2018-10-02T08:34:54.913Z,9.22
2018-10-02T08:35:54.977Z,9.13
2018-10-02T08:36:54.862Z,9.19
2018-10-02T08:37:54.856Z,9.13
2018-10-02T08:38:54.894Z,9.23
2018-10-02T08:39:54.855Z,9.23
2018-10-02T08:40:54.849Z,9.26
2018-10-02T08:41:54.857Z,9.26
2018-10-02T08:42:54.795Z,9.23
2018-10-02T08:43:54.842Z,9.24
2018-10-02T08:44:54.856Z,9.30
2018-10-02T08:45:54.759Z,9.27
2018-10-02T08:46:54.901Z,9.24
2018-10-02T08:47:54.793Z,9.30
2018-10-02T08:48:54.729Z,9.37
2018-10-02T08:49:54.821Z,9.22
2018-10-02T08:50:54.780Z,9.34
2018-10-02T08:51:54.760Z,9.31
2018-10-02T08:52:54.692Z,9.23
2018-10-02T08:53:54.712Z,9.27
2018-10-02T08:54:54.871Z,9.30
2018-10-02T08:55:54.676Z,9.30
2018-10-02T08:56:54.640Z,9.30
2018-10-02T08:57:54.746Z,9.24
2018-10-02T08:58:54.631Z,9.23
2018-10-02T08:59:54.605Z,9.13
2018-10-02T09:00:54.904Z,9.17
2018-10-02T09:01:54.584Z,9.19
2018-10-02T09:02:54.585Z,9.31
2018-10-02T09:03:54.562Z,9.30
2018-10-02T09:04:54.582Z,9.22
2018-10-02T09:05:54.638Z,9.30
2018-10-02T09:06:54.613Z,9.30
2018-10-02T09:07:54.519Z,9.26
2018-10-02T09:08:54.511Z,9.22
2018-10-02T09:09:54.502Z,9.31
2018-10-02T09:10:54.517Z,9.37
2018-10-02T09:11:54.507Z,9.35
2018-10-02T09:12:54.545Z,9.31
2018-10-02T09:13:54.482Z,9.38
2018-10-02T09:14:54.451Z,9.31
2018-10-02T09:15:54.720Z,9.40
2018-10-02T09:16:54.459Z,9.34
2018-10-02T09:17:54.419Z,9.38
2018-10-02T09:18:54.455Z,9.42
2018-10-02T09:19:54.393Z,9.35
2018-10-02T09:20:54.488Z,9.42
2018-10-02T09:21:54.422Z,9.42
2018-10-02T09:22:54.371Z,9.32
2018-10-02T09:23:54.483Z,9.34
2018-10-02T09:24:54.455Z,9.23
2018-10-02T09:25:54.325Z,9.23
2018-10-02T09:26:54.312Z,9.26
2018-10-02T09:27:54.462Z,9.31
2018-10-02T09:28:54.295Z,9.27
2018-10-02T09:29:54.297Z,9.24
2018-10-02T09:30:54.534Z,9.30
2018-10-02T09:31:54.265Z,9.22
2018-10-02T09:32:54.337Z,9.24
2018-10-02T09:33:54.298Z,9.30
2018-10-02T09:34:54.229Z,9.17
2018-10-02T09:35:54.224Z,9.22
2018-10-02T09:36:54.328Z,9.22
2018-10-02T09:37:54.216Z,9.23
2018-10-02T09:38:54.231Z,9.26
2018-10-02T09:39:54.220Z,9.20
2018-10-02T09:40:54.391Z,9.30
2018-10-02T09:41:54.155Z,9.31
2018-10-02T09:42:54.162Z,9.27
2018-10-02T09:43:54.203Z,9.23
2018-10-02T09:44:54.151Z,9.26
2018-10-02T09:45:54.163Z,9.26
2018-10-02T09:46:54.111Z,9.26
2018-10-02T09:47:54.260Z,9.38
2018-10-02T09:48:54.138Z,9.31
2018-10-02T09:49:54.184Z,9.38
2018-10-02T09:50:54.072Z,9.34
2018-10-02T09:51:54.136Z,9.37
2018-10-02T09:52:54.037Z,9.37
2018-10-02T09:53:54.020Z,9.32
2018-10-02T09:54:54.071Z,9.37
2018-10-02T09:55:54.307Z,9.40
2018-10-02T09:56:54.066Z,9.34
2018-10-02T09:57:53.976Z,9.38
2018-10-02T09:58:53.979Z,9.30
2018-10-02T09:59:53.954Z,9.30
2018-10-02T10:00:53.983Z,9.40
2018-10-02T10:01:53.993Z,9.35
2018-10-02T10:02:53.938Z,9.31
2018-10-02T10:03:53.928Z,9.32
2018-10-02T10:04:53.927Z,9.35
2018-10-02T10:05:53.894Z,9.34
2018-10-02T10:06:53.918Z,9.37
2018-10-02T10:07:53.897Z,9.38
2018-10-02T10:08:53.864Z,9.41
2018-10-02T10:09:53.847Z,9.32
2018-10-02T10:10:53.839Z,9.50
2018-10-02T10:11:53.823Z,9.38
2018-10-02T10:12:53.856Z,9.45
2018-10-02T10:13:53.822Z,9.45
2018-10-02T10:14:53.822Z,9.56
2018-10-02T10:15:53.782Z,9.55
2018-10-02T10:16:53.841Z,9.58
2018-10-02T10:17:53.796Z,9.56
2018-10-02T10:18:53.775Z,9.65
2018-10-02T10:19:53.738Z,9.63
2018-10-02T10:20:53.745Z,9.65
2018-10-02T10:21:53.725Z,9.63
2018-10-02T10:22:53.824Z,9.53
2018-10-02T10:23:53.716Z,9.59
2018-10-02T10:24:53.725Z,9.58
2018-10-02T10:25:53.685Z,9.48
2018-10-02T10:26:53.703Z,9.53
2018-10-02T10:27:53.648Z,9.48
2018-10-02T10:28:53.801Z,9.49
2018-10-02T10:29:53.659Z,9.48
2018-10-02T10:30:53.689Z,9.45
2018-10-02T10:31:53.616Z,9.45
2018-10-02T10:32:53.594Z,9.44
2018-10-02T10:33:53.600Z,9.45
2018-10-02T10:34:53.608Z,9.44
2018-10-02T10:35:53.597Z,9.34
2018-10-02T10:36:53.551Z,9.50
2018-10-02T10:37:53.540Z,9.44
2018-10-02T10:38:53.531Z,9.45
2018-10-02T10:39:53.633Z,9.44
2018-10-02T10:40:53.567Z,9.52
2018-10-02T10:41:53.590Z,9.45
2018-10-02T10:42:53.485Z,9.49
2018-10-02T10:43:53.508Z,9.48
2018-10-02T10:44:53.465Z,9.53
2018-10-02T10:45:53.455Z,9.50
2018-10-02T10:46:53.565Z,9.56
2018-10-02T10:47:53.488Z,9.58
2018-10-02T10:48:53.420Z,9.52
2018-10-02T10:49:53.640Z,9.62
2018-10-02T10:50:53.402Z,9.53
2018-10-02T10:51:53.390Z,9.59
2018-10-02T10:52:53.494Z,9.68
2018-10-02T10:53:53.380Z,9.67
2018-10-02T10:54:53.457Z,9.70
2018-10-02T10:55:53.344Z,9.60
2018-10-02T10:56:53.341Z,9.74
2018-10-02T10:57:53.341Z,9.73
2018-10-02T10:58:53.581Z,9.75
2018-10-02T10:59:53.298Z,9.73
2018-10-02T11:00:53.296Z,9.77
2018-10-02T11:01:53.326Z,9.81
2018-10-02T11:02:53.363Z,9.80
2018-10-02T11:03:53.290Z,9.85
2018-10-02T11:04:53.357Z,9.73
2018-10-02T11:05:53.243Z,9.83
2018-10-02T11:06:53.225Z,9.93
2018-10-02T11:07:53.213Z,9.92
2018-10-02T11:08:53.231Z,9.98
2018-10-02T11:09:53.318Z,9.92
2018-10-02T11:10:53.247Z,10.09
2018-10-02T11:11:53.227Z,10.14
2018-10-02T11:12:53.176Z,10.14
2018-10-02T11:13:53.480Z,10.14
2018-10-02T11:14:53.135Z,10.18
2018-10-02T11:15:53.139Z,10.28
2018-10-02T11:16:53.120Z,10.29
2018-10-02T11:17:53.112Z,10.16
2018-10-02T11:18:53.274Z,10.31
2018-10-02T11:19:53.454Z,10.32
2018-10-02T11:20:53.376Z,10.44
2018-10-02T11:21:53.127Z,10.46
2018-10-02T11:22:53.092Z,10.49
2018-10-02T11:23:53.064Z,10.58
2018-10-02T11:24:53.421Z,10.46
2018-10-02T11:25:53.109Z,10.55
2018-10-02T11:26:53.161Z,10.60
2018-10-02T11:27:52.998Z,10.51
2018-10-02T11:28:53.013Z,10.57
2018-10-02T11:29:53.046Z,10.57
2018-10-02T11:30:52.996Z,10.52
2018-10-02T11:31:52.995Z,10.46
2018-10-02T11:32:52.957Z,10.49
2018-10-02T11:33:52.932Z,10.58
2018-10-02T11:34:52.960Z,10.62
2018-10-02T11:35:52.941Z,10.47
2018-10-02T11:36:52.910Z,10.55
2018-10-02T11:37:52.893Z,10.47
2018-10-02T11:38:52.879Z,10.43
2018-10-02T11:39:52.869Z,10.43
2018-10-02T11:40:52.937Z,10.43
2018-10-02T11:41:52.885Z,10.46
2018-10-02T11:42:52.838Z,10.38
2018-10-02T11:43:52.968Z,10.38
2018-10-02T11:44:53.054Z,10.47
2018-10-02T11:45:52.810Z,10.52
2018-10-02T11:46:52.805Z,10.49
2018-10-02T11:47:52.826Z,10.51
2018-10-02T11:48:52.815Z,10.47
2018-10-02T11:49:52.944Z,10.44
2018-10-02T11:50:52.756Z,10.52
2018-10-02T11:51:52.746Z,10.49
2018-10-02T11:52:52.756Z,10.52
2018-10-02T11:53:52.721Z,10.62
2018-10-02T11:54:53.119Z,10.54
2018-10-02T11:55:52.821Z,10.43
2018-10-02T11:56:52.713Z,10.47
2018-10-02T11:57:52.774Z,10.43
2018-10-02T11:58:52.686Z,10.65
2018-10-02T11:59:52.663Z,10.52
2018-10-02T12:00:52.747Z,10.54
2018-10-02T12:01:52.658Z,10.47
2018-10-02T12:02:52.627Z,10.52
2018-10-02T12:03:52.656Z,10.44
2018-10-02T12:04:52.598Z,10.65
2018-10-02T12:05:52.593Z,10.51
2018-10-02T12:06:52.685Z,10.52
2018-10-02T12:07:52.609Z,10.44
2018-10-02T12:08:52.724Z,10.47
2018-10-02T12:09:52.553Z,10.46
2018-10-02T12:10:52.738Z,10.46
2018-10-02T12:11:52.574Z,10.51
2018-10-02T12:12:52.563Z,10.51
2018-10-02T12:13:52.623Z,10.51
2018-10-02T12:14:52.589Z,10.46
2018-10-02T12:15:52.490Z,10.51
2018-10-02T12:16:52.474Z,10.46
2018-10-02T12:17:52.501Z,10.49
2018-10-02T12:18:52.453Z,10.47
2018-10-02T12:19:52.886Z,10.46
2018-10-02T12:20:52.484Z,10.47
2018-10-02T12:21:52.414Z,10.44
2018-10-02T12:22:52.414Z,10.46
2018-10-02T12:23:52.492Z,10.46
2018-10-02T12:24:52.511Z,10.39
2018-10-02T12:25:52.371Z,10.47
2018-10-02T12:26:52.364Z,10.52
2018-10-02T12:27:52.350Z,10.46
2018-10-02T12:28:52.549Z,10.47
2018-10-02T12:29:52.334Z,10.47
2018-10-02T12:30:52.351Z,10.55
2018-10-02T12:31:52.495Z,10.60
2018-10-02T12:32:52.300Z,10.58
2018-10-02T12:33:52.299Z,10.54
2018-10-02T12:34:52.329Z,10.52
2018-10-02T12:35:52.300Z,10.55
2018-10-02T12:36:52.330Z,10.55
2018-10-02T12:37:52.249Z,10.55
2018-10-02T12:38:52.532Z,10.46
2018-10-02T12:39:52.277Z,10.43
2018-10-02T12:40:52.227Z,10.44
2018-10-02T12:41:52.202Z,10.47
2018-10-02T12:42:52.232Z,10.46
2018-10-02T12:43:52.311Z,10.38
2018-10-02T12:44:52.165Z,10.42
2018-10-02T12:45:52.158Z,10.43
2018-10-02T12:46:52.183Z,10.42
2018-10-02T12:47:52.259Z,10.43
2018-10-02T12:48:52.151Z,10.43
2018-10-02T12:49:52.260Z,10.44
2018-10-02T12:50:52.100Z,10.43
2018-10-02T12:51:52.111Z,10.39
2018-10-02T12:52:52.360Z,10.46
2018-10-02T12:53:52.072Z,10.47
2018-10-02T12:54:52.095Z,10.46
2018-10-02T12:55:52.050Z,10.39
2018-10-02T12:56:52.077Z,10.35
2018-10-02T12:57:52.175Z,10.42
2018-10-02T12:58:52.013Z,10.43
2018-10-02T12:59:52.037Z,10.38
2018-10-02T13:00:51.995Z,10.35
2018-10-02T13:01:52.085Z,10.34
2018-10-02T13:02:52.177Z,10.43
2018-10-02T13:03:51.974Z,10.42
2018-10-02T13:04:51.973Z,10.42
2018-10-02T13:05:51.974Z,10.44
2018-10-02T13:06:52.118Z,10.39
2018-10-02T13:07:51.935Z,10.39
2018-10-02T13:08:51.911Z,10.44
2018-10-02T13:09:51.932Z,10.47
2018-10-02T13:10:51.948Z,10.51
2018-10-02T13:11:51.872Z,10.44
2018-10-02T13:12:52.084Z,10.55
2018-10-02T13:13:51.891Z,10.58